Decoded Metar for KAID (ANDERSON MUNICIP in IN, USA) (IATA:AID) | Meteo·Mobile Aviation Weather
aviador You're here:

KAID Decoded Metar

ANDERSON MUNICIP in IN, USA
Report Time2019-11-16 00:35:00
UTC Time2019-11-16 00:55:52
Flight Rules mvfr MVFR
Wind020° at 07 kt
W.Decomp.*RWY 36: 6.4 kt HW 2.7 kt RCW
RWY 30: 0.9 kt HW 6.9 kt RCW
Visibility9999 m
Phenomena:N/A
Clouds:Overcast 019 Hf
Expected CloudBase > 1,200 ft AGL from Temp-Dew spread
Ceiling1,900 ft
Temp02°C (ISA -11)
Dew Point-1°C (81% RH)
AAT-2.6°C
QNH1028 hPa
Density Alt-866 ft
Elevation919 ft
Report Wrong Elevation
Raw Report
KAID 160035Z AUTO 02007KT 10SM OVC019 02/M01 A3035 RMK AO2
T00211011=

Extra information for KAID:More info

Metar Taf Metar & Taf Last 4 Metars F.Rules Stats Wind Profile Meteogram Temp Stats Airport Information Weather charts Add Link Nearby VenuesMetar ALERT Operation Metar Decoded Social comments

AIRNAV info for KAID